Other Surface Observations
Issued by NWS

Current Version | Previous Version | Text Only | Print | Product List | Glossary On
Versions: 1 2 3 4 5 6 7 8 9 10 11 12 13 14 15 16 17 18 19 20 21 22 23 24 25 26 27 28 29 30 31 32 33 34 35 36 37 38 39 40 41 42 43 44 45 46 47 48 49 50
000
SXUS54 KWBC 250759
OSOGT
:SHEF ENCODED 6-MINUTE NOS MET DATA
:NATIONAL WATER LEVEL OBSERVATION NETWORK (NWLON)
:TA(AIR TEMP DEG F)  SLP(SEA LEVEL PRESSURE INCHES)
:UD(WIND DIRECTION WHOLE DEGREES) US(WIND SPEED MPH)
:TW(WATER TEMP DEG F) UG(WIND GUSTS MPH) WC(CONDUCTIVITY uMHOS/CM)
:-9999 (MISSING VALUES)
:TIME ZONE IS LST
:PROVIDED BY DOC/NOAA/NOS/CO-OPS, (301) 713-2540
:corms@noaa.gov
.A OBGN6 20220925 ES DH0242/TAIRG    53/UGIRG -9999/PLIRG 29.72/UDIRG -9999/USIRG -9999/TWIRG    69/WCIRG -9999
.E ALXN6 20220925 ES DH0242/PLIRP/DIN06/29.77/29.77
.E ALXN6 20220925 ES DH0242/TWIRP/DIN06/   65/   65
.A ALXN6 20220925 ES DH0242/TAIRG -9999/UGIRG -9999/PLIRG 29.77/UDIRG -9999/USIRG -9999/TWIRG    65/WCIRG -9999
.E AGCM4 20220925 ES DH0242/TAIRG/DIN06/   59/   59
.E AGCM4 20220925 ES DH0242/PLIRG/DIN06/29.62/29.62
.E AGCM4 20220925 ES DH0242/TWIRG/DIN06/   66/   66
.E MBRM4 20220925 ES DH0242/TAIRG/DIN06/   59/   59
.E MBRM4 20220925 ES DH0242/PLIRG/DIN06/29.62/29.62
.E FTGM4 20220925 ES DH0242/TAIRG/DIN06/   58/   58
.E FTGM4 20220925 ES DH0242/PLIRG/DIN06/29.62/29.62
.E FTGM4 20220925 ES DH0242/USIRG/DIN06/    4/    5
.E FTGM4 20220925 ES DH0242/UDIRG/DIN06/  244/  240
.E FTGM4 20220925 ES DH0242/UGIRG/DIN06/    6/    6
.E OSGN6 20220925 ES DH0242/TAIRP/DIN06/   55/   55
.E OSGN6 20220925 ES DH0242/PLIRP/DIN06/29.76/29.76
.E OSGN6 20220925 ES DH0242/USIRP/DIN06/    8/    6
.E OSGN6 20220925 ES DH0242/UDIRP/DIN06/  160/  157
.E OSGN6 20220925 ES DH0242/UGIRP/DIN06/   11/   12
.A OSGN6 20220925 ES DH0242/TAIRG    55/UGIRG    11/PLIRG 29.76/UDIRG   160/USIRG     8/TWIRG -9999/WCIRG -9999
.A RCRN6 20220925 ES DH0242/TAIRG    56/UGIRG -9999/PLIRG 29.71/UDIRG -9999/USIRG -9999/TWIRG -9999/WCIRG -9999
.E NIAN6 20220925 ES DH0242/TAIRP/DIN06/   60/   60
.E NIAN6 20220925 ES DH0242/PLIRP/DIN06/29.70/29.70
.A NIAN6 20220925 ES DH0242/TAIRG    60/UGIRG -9999/PLIRG 29.70/UDIRG -9999/USIRG -9999/TWIRG -9999/WCIRG -9999
.E BUFN6 20220925 ES DH0242/TAIRG/DIN06/   59/   59
.E BUFN6 20220925 ES DH0242/PLIRG/DIN06/29.67/29.67
.E BUFN6 20220925 ES DH0242/USIRG/DIN06/    6/    6
.E BUFN6 20220925 ES DH0242/UDIRG/DIN06/  124/  122
.E BUFN6 20220925 ES DH0242/UGIRG/DIN06/    9/    8
.E BUFN6 20220925 ES DH0242/TWIRG/DIN06/   68/   68
.A PSTN6 20220925 ES DH0242/TAIRG    56/UGIRG -9999/PLIRG 29.70/UDIRG -9999/USIRG -9999/TWIRG -9999/WCIRG -9999
.E EREP1 20220925 ES DH0242/USIRP/DIN06/    6/    6
.E EREP1 20220925 ES DH0242/UDIRP/DIN06/  174/  183
.E EREP1 20220925 ES DH0242/UGIRP/DIN06/   11/   11
.E EREP1 20220925 ES DH0242/USIRG/DIN06/    6/    6
.E EREP1 20220925 ES DH0242/UDIRG/DIN06/  174/  183
.E EREP1 20220925 ES DH0242/UGIRG/DIN06/   11/   11
.E FAIO1 20220925 ES DH0242/TAIRP/DIN06/   60/   61
.E FAIO1 20220925 ES DH0242/PLIRP/DIN06/29.69/29.68
.E FAIO1 20220925 ES DH0242/USIRP/DIN06/   12/   12
.E FAIO1 20220925 ES DH0242/UDIRP/DIN06/  258/  253
.E FAIO1 20220925 ES DH0242/UGIRP/DIN06/   15/   15
.E FAIO1 20220925 ES DH0242/TWIRP/DIN06/   67/   67
.E FAIO1 20220925 ES DH0242/TAIRG/DIN06/   60/   61
.E FAIO1 20220925 ES DH0242/PLIRG/DIN06/29.69/29.68
.E FAIO1 20220925 ES DH0242/USIRG/DIN06/   12/   12
.E FAIO1 20220925 ES DH0242/UDIRG/DIN06/  258/  253
.E FAIO1 20220925 ES DH0242/UGIRG/DIN06/   15/   15
.E FAIO1 20220925 ES DH0242/TWIRG/DIN06/   67/   67
.E CNDO1 20220925 ES DH0242/TAIRG/DIN06/   58/   58
.E CNDO1 20220925 ES DH0242/PLIRG/DIN06/29.68/29.68
.E CNDO1 20220925 ES DH0242/TWIRG/DIN06/   73/   73
.A MRHO1 20220925 ES DH0248/TAIRP    61/UGIRP    11/PLIRP 29.64/UDIRP   188/USIRP     5/TWIRP    69/WCIRP -9999
.E MRHO1 20220925 ES DH0242/TAIRG/DIN06/   61/   61
.E MRHO1 20220925 ES DH0242/PLIRG/DIN06/29.64/29.64
.E MRHO1 20220925 ES DH0242/USIRG/DIN06/    5/    5
.E MRHO1 20220925 ES DH0242/UDIRG/DIN06/  201/  188
.E MRHO1 20220925 ES DH0242/UGIRG/DIN06/    7/   11
.E MRHO1 20220925 ES DH0242/TWIRG/DIN06/   69/   69
.E THRO1 20220925 ES DH0242/TAIRG/DIN06/   61/   61
.E THRO1 20220925 ES DH0242/PLIRG/DIN06/29.64/29.63
.E THRO1 20220925 ES DH0242/USIRG/DIN06/    4/    3
.E THRO1 20220925 ES DH0242/UDIRG/DIN06/  273/  267
.E THRO1 20220925 ES DH0242/UGIRG/DIN06/    6/    5
.E HRBM4 20220925 ES DH0242/TAIRG/DIN06/   55/   56
.E HRBM4 20220925 ES DH0242/PLIRG/DIN06/29.61/29.61
.E HRBM4 20220925 ES DH0242/USIRG/DIN06/    6/    6
.E HRBM4 20220925 ES DH0242/UDIRG/DIN06/  259/  265
.E HRBM4 20220925 ES DH0242/UGIRG/DIN06/    6/    7
.E HRBM4 20220925 ES DH0242/TWIRG/DIN06/   64/   64
.A LPNM4 20220925 ES DH0248/TAIRP    53/UGIRP     5/PLIRP 29.62/UDIRP   303/USIRP     3/TWIRP    61/WCIRP -9999
.E LPNM4 20220925 ES DH0242/TAIRG/DIN06/   53/   53
.E LPNM4 20220925 ES DH0242/PLIRG/DIN06/29.62/29.62
.E LPNM4 20220925 ES DH0242/USIRG/DIN06/    3/    3
.E LPNM4 20220925 ES DH0242/UDIRG/DIN06/  302/  303
.E LPNM4 20220925 ES DH0242/UGIRG/DIN06/    4/    5
.E LPNM4 20220925 ES DH0242/TWIRG/DIN06/   61/   61
.E MACM4 20220925 ES DH0242/TAIRG/DIN06/   53/   53
.E MACM4 20220925 ES DH0242/PLIRG/DIN06/29.60/29.60
.E MACM4 20220925 ES DH0242/USIRG/DIN06/   10/    9
.E MACM4 20220925 ES DH0242/UDIRG/DIN06/  348/  351
.E MACM4 20220925 ES DH0242/UGIRG/DIN06/   12/   12
.E MACM4 20220925 ES DH0242/TWIRG/DIN06/   63/   63
.E DTLM4 20220925 ES DH0242/TAIRG/DIN06/   53/   53
.E DTLM4 20220925 ES DH0242/PLIRG/DIN06/29.61/29.61
.E DTLM4 20220925 ES DH0242/USIRG/DIN06/    2/    2
.E DTLM4 20220925 ES DH0242/UDIRG/DIN06/   97/   97
.E DTLM4 20220925 ES DH0242/UGIRG/DIN06/    3/    3
.E DTLM4 20220925 ES DH0242/TWIRG/DIN06/   62/   62
.E RCKM4 20220925 ES DH0242/PLIRG/DIN06/29.60/29.60
.E RCKM4 20220925 ES DH0242/USIRG/DIN06/    7/    7
.E RCKM4 20220925 ES DH0242/UDIRG/DIN06/   39/   36
.E RCKM4 20220925 ES DH0242/UGIRG/DIN06/   10/   11
.E RCKM4 20220925 ES DH0242/TWIRG/DIN06/   59/   59
.E LTRM4 20220925 ES DH0242/TAIRG/DIN06/   51/   51
.E LTRM4 20220925 ES DH0242/PLIRG/DIN06/29.62/29.62
.E LTRM4 20220925 ES DH0242/USIRG/DIN06/    8/    8
.E LTRM4 20220925 ES DH0242/UDIRG/DIN06/   38/   38
.E LTRM4 20220925 ES DH0242/UGIRG/DIN06/   10/   11
.E LTRM4 20220925 ES DH0242/TWIRG/DIN06/   59/   59
.A SWPM4 20220925 ES DH0248/TAIRP    51/UGIRP     7/PLIRP 29.63/UDIRP    58/USIRP     5/TWIRP    62/WCIRP -9999
.E SWPM4 20220925 ES DH0242/TAIRG/DIN06/   51/   51
.E SWPM4 20220925 ES DH0242/PLIRG/DIN06/29.63/29.63
.E SWPM4 20220925 ES DH0242/USIRG/DIN06/    6/    5
.E SWPM4 20220925 ES DH0242/UDIRG/DIN06/   48/   58
.E SWPM4 20220925 ES DH0242/UGIRG/DIN06/   10/    7
.E SWPM4 20220925 ES DH0242/TWIRG/DIN06/   62/   62
.E LDTM4 20220925 ES DH0236/TAIRG/DIN06/   60/   59
.E LDTM4 20220925 ES DH0236/PLIRG/DIN06/29.65/29.65
.E LDTM4 20220925 ES DH0236/USIRG/DIN06/    6/    3
.E LDTM4 20220925 ES DH0236/UDIRG/DIN06/  289/  296
.E LDTM4 20220925 ES DH0236/UGIRG/DIN06/   13/    7
.A HLNM4 20220925 ES DH0242/TAIRG    60/UGIRG    15/PLIRG 29.66/UDIRG   260/USIRG    13/TWIRG    61/WCIRG -9999
.A CMTI2 20220925 CS DH0142/TAIRG    60/UGIRG     5/PLIRG 29.69/UDIRG   245/USIRG     3/TWIRG -9999/WCIRG -9999
.E KWNW3 20220925 CS DH0142/TAIRG/DIN06/   55/   55
.E KWNW3 20220925 CS DH0142/PLIRG/DIN06/29.67/29.66
.A GBWW3 20220925 CS DH0148/TAIRP    56/UGIRP     6/PLIRP 29.66/UDIRP   294/USIRP     5/TWIRP -9999/WCIRP -9999
.E GBWW3 20220925 CS DH0136/TAIRG/DIN06/   56/   56
.E GBWW3 20220925 CS DH0136/PLIRG/DIN06/29.66/29.66
.E GBWW3 20220925 CS DH0136/USIRG/DIN06/    3/    4
.E GBWW3 20220925 CS DH0136/UDIRG/DIN06/  288/  291
.E GBWW3 20220925 CS DH0136/UGIRG/DIN06/    5/    5
.E MNMM4 20220925 CS DH0142/TAIRG/DIN06/   53/   53
.E MNMM4 20220925 CS DH0142/PLIRG/DIN06/29.67/29.67
.E MNMM4 20220925 CS DH0142/USIRG/DIN06/    5/    5
.E MNMM4 20220925 CS DH0142/UDIRG/DIN06/  302/  313
.E MNMM4 20220925 CS DH0142/UGIRG/DIN06/    7/    8
.E MNMM4 20220925 CS DH0142/TWIRG/DIN06/   67/   67
.A PNLM4 20220925 ES DH0248/TAIRP    48/UGIRP -9999/PLIRP 29.65/UDIRP -9999/USIRP -9999/TWIRP -9999/WCIRP -9999
.E PNLM4 20220925 ES DH0236/TAIRG/DIN06/   48/   48/-9999
.E PNLM4 20220925 ES DH0236/PLIRG/DIN06/29.65/29.65/-9999
.E PNLM4 20220925 ES DH0236/TWIRG/DIN06/-9999/   60/   60
.E PTIM4 20220925 ES DH0242/TAIRG/DIN06/   51/   51
.E PTIM4 20220925 ES DH0242/PLIRG/DIN06/29.63/29.63
.E PTIM4 20220925 ES DH0242/USIRG/DIN06/   13/   13
.E PTIM4 20220925 ES DH0242/UDIRG/DIN06/   58/   65
.E PTIM4 20220925 ES DH0242/UGIRG/DIN06/   15/   16
.E MCGM4 20220925 ES DH0242/TAIRP/DIN06/   49/   49
.E MCGM4 20220925 ES DH0242/PLIRP/DIN06/29.67/29.67
.E MCGM4 20220925 ES DH0242/USIRP/DIN06/    3/    2
.E MCGM4 20220925 ES DH0242/UDIRP/DIN06/  284/  321
.E MCGM4 20220925 ES DH0242/UGIRP/DIN06/    6/    6
.E MCGM4 20220925 ES DH0242/TAIRG/DIN06/   49/   49
.E MCGM4 20220925 ES DH0242/PLIRG/DIN06/29.67/29.67
.E MCGM4 20220925 ES DH0242/USIRG/DIN06/    3/    2
.E MCGM4 20220925 ES DH0242/UDIRG/DIN06/  284/  321
.E MCGM4 20220925 ES DH0242/UGIRG/DIN06/    6/    6
.E DULM5 20220925 CS DH0142/TAIRG/DIN06/   54/   55
.E DULM5 20220925 CS DH0142/PLIRG/DIN06/29.77/29.77
.E DULM5 20220925 CS DH0142/USIRG/DIN06/    0/    0
.E DULM5 20220925 CS DH0142/UDIRG/DIN06/  270/  307
.E DULM5 20220925 CS DH0142/UGIRG/DIN06/    0/    2
.E DULM5 20220925 CS DH0142/TWIRG/DIN06/   63/   63
.E GDMM5 20220925 CS DH0142/TAIRG/DIN06/   52/   52
.E GDMM5 20220925 CS DH0142/PLIRG/DIN06/29.72/29.72
.E GDMM5 20220925 CS DH0142/TWIRG/DIN06/   54/   54



USA.gov is the U.S. government's official web portal to all federal, state and local government web resources and services.